sensor_id;sensor_type;location;lat;lon;timestamp;P1;durP1;ratioP1;P2;durP2;ratioP2
80852;SDS011;70270;43.434;28.338;2023-07-20T00:01:18;17.58;;;14.23;;
80852;SDS011;70270;43.434;28.338;2023-07-20T00:04:03;20.05;;;14.43;;
80852;SDS011;70270;43.434;28.338;2023-07-20T00:06:47;17.90;;;14.77;;
80852;SDS011;70270;43.434;28.338;2023-07-20T00:09:32;17.17;;;13.25;;
80852;SDS011;70270;43.434;28.338;2023-07-20T00:12:16;18.10;;;13.15;;
80852;SDS011;70270;43.434;28.338;2023-07-20T00:15:01;19.08;;;14.45;;
80852;SDS011;70270;43.434;28.338;2023-07-20T00:17:45;24.90;;;14.07;;
80852;SDS011;70270;43.434;28.338;2023-07-20T00:20:30;22.13;;;14.90;;
80852;SDS011;70270;43.434;28.338;2023-07-20T00:23:14;21.38;;;14.38;;
80852;SDS011;70270;43.434;28.338;2023-07-20T00:25:58;22.02;;;14.60;;
80852;SDS011;70270;43.434;28.338;2023-07-20T00:28:43;21.15;;;13.57;;
80852;SDS011;70270;43.434;28.338;2023-07-20T00:31:27;22.27;;;14.15;;
80852;SDS011;70270;43.434;28.338;2023-07-20T00:34:14;18.98;;;14.60;;
80852;SDS011;70270;43.434;28.338;2023-07-20T00:36:58;18.85;;;14.40;;
80852;SDS011;70270;43.434;28.338;2023-07-20T00:39:43;18.17;;;14.48;;
80852;SDS011;70270;43.434;28.338;2023-07-20T00:42:27;17.92;;;13.45;;
80852;SDS011;70270;43.434;28.338;2023-07-20T00:45:12;20.10;;;12.38;;
80852;SDS011;70270;43.434;28.338;2023-07-20T00:47:56;18.73;;;13.13;;
80852;SDS011;70270;43.434;28.338;2023-07-20T00:50:41;17.05;;;13.27;;
80852;SDS011;70270;43.434;28.338;2023-07-20T00:53:26;23.77;;;16.75;;
80852;SDS011;70270;43.434;28.338;2023-07-20T00:56:11;20.58;;;15.65;;
80852;SDS011;70270;43.434;28.338;2023-07-20T00:58:57;21.98;;;15.70;;
80852;SDS011;70270;43.434;28.338;2023-07-20T01:01:41;21.25;;;14.35;;
80852;SDS011;70270;43.434;28.338;2023-07-20T01:04:26;18.40;;;14.82;;
80852;SDS011;70270;43.434;28.338;2023-07-20T01:13:09;18.67;;;13.43;;
80852;SDS011;70270;43.434;28.338;2023-07-20T01:15:57;21.58;;;14.02;;
80852;SDS011;70270;43.434;28.338;2023-07-20T01:18:45;18.58;;;13.93;;
80852;SDS011;70270;43.434;28.338;2023-07-20T01:34:16;19.63;;;13.70;;
80852;SDS011;70270;43.434;28.338;2023-07-20T01:37:03;15.50;;;13.75;;
80852;SDS011;70270;43.434;28.338;2023-07-20T01:39:48;17.92;;;13.95;;
80852;SDS011;70270;43.434;28.338;2023-07-20T01:42:32;16.73;;;13.90;;
80852;SDS011;70270;43.434;28.338;2023-07-20T01:45:17;15.73;;;13.95;;
80852;SDS011;70270;43.434;28.338;2023-07-20T01:48:02;19.30;;;12.23;;
80852;SDS011;70270;43.434;28.338;2023-07-20T01:50:47;18.80;;;13.88;;
80852;SDS011;70270;43.434;28.338;2023-07-20T01:53:33;20.92;;;14.40;;
80852;SDS011;70270;43.434;28.338;2023-07-20T01:56:17;15.55;;;12.80;;
80852;SDS011;70270;43.434;28.338;2023-07-20T01:59:02;17.50;;;13.55;;
80852;SDS011;70270;43.434;28.338;2023-07-20T02:01:46;17.80;;;13.95;;
80852;SDS011;70270;43.434;28.338;2023-07-20T02:04:31;15.57;;;12.55;;
80852;SDS011;70270;43.434;28.338;2023-07-20T02:07:16;16.65;;;12.38;;
80852;SDS011;70270;43.434;28.338;2023-07-20T02:10:00;20.38;;;12.63;;
80852;SDS011;70270;43.434;28.338;2023-07-20T02:12:45;15.82;;;11.90;;
80852;SDS011;70270;43.434;28.338;2023-07-20T02:15:29;13.82;;;11.20;;
80852;SDS011;70270;43.434;28.338;2023-07-20T02:18:14;14.82;;;11.05;;
80852;SDS011;70270;43.434;28.338;2023-07-20T02:20:58;16.75;;;10.93;;
80852;SDS011;70270;43.434;28.338;2023-07-20T02:23:43;24.63;;;10.05;;
80852;SDS011;70270;43.434;28.338;2023-07-20T02:26:27;20.80;;;11.60;;
80852;SDS011;70270;43.434;28.338;2023-07-20T02:29:12;17.08;;;12.65;;
80852;SDS011;70270;43.434;28.338;2023-07-20T02:31:56;25.33;;;16.75;;
80852;SDS011;70270;43.434;28.338;2023-07-20T02:34:40;22.45;;;13.55;;
80852;SDS011;70270;43.434;28.338;2023-07-20T02:37:25;15.40;;;13.05;;
80852;SDS011;70270;43.434;28.338;2023-07-20T02:40:09;17.70;;;12.55;;
80852;SDS011;70270;43.434;28.338;2023-07-20T02:45:40;24.10;;;16.70;;
80852;SDS011;70270;43.434;28.338;2023-07-20T02:48:26;30.65;;;16.55;;
80852;SDS011;70270;43.434;28.338;2023-07-20T02:51:10;17.92;;;12.88;;
80852;SDS011;70270;43.434;28.338;2023-07-20T02:53:55;17.50;;;12.35;;
80852;SDS011;70270;43.434;28.338;2023-07-20T02:56:39;18.08;;;13.50;;
80852;SDS011;70270;43.434;28.338;2023-07-20T02:59:24;18.52;;;13.00;;
80852;SDS011;70270;43.434;28.338;2023-07-20T03:02:08;15.68;;;11.95;;
80852;SDS011;70270;43.434;28.338;2023-07-20T03:04:55;13.57;;;12.07;;
80852;SDS011;70270;43.434;28.338;2023-07-20T03:07:41;20.58;;;12.10;;
80852;SDS011;70270;43.434;28.338;2023-07-20T03:10:27;19.50;;;11.52;;
80852;SDS011;70270;43.434;28.338;2023-07-20T03:13:13;18.63;;;11.25;;
80852;SDS011;70270;43.434;28.338;2023-07-20T03:16:00;14.50;;;10.88;;
80852;SDS011;70270;43.434;28.338;2023-07-20T03:18:46;13.43;;;11.55;;
80852;SDS011;70270;43.434;28.338;2023-07-20T03:21:31;13.93;;;10.98;;
80852;SDS011;70270;43.434;28.338;2023-07-20T03:24:17;14.77;;;11.38;;
80852;SDS011;70270;43.434;28.338;2023-07-20T03:27:01;14.98;;;10.55;;
80852;SDS011;70270;43.434;28.338;2023-07-20T03:29:46;16.30;;;11.05;;
80852;SDS011;70270;43.434;28.338;2023-07-20T03:32:30;16.45;;;11.52;;
80852;SDS011;70270;43.434;28.338;2023-07-20T03:35:15;17.45;;;11.02;;
80852;SDS011;70270;43.434;28.338;2023-07-20T03:38:00;14.60;;;11.00;;
80852;SDS011;70270;43.434;28.338;2023-07-20T03:40:54;22.25;;;11.55;;
80852;SDS011;70270;43.434;28.338;2023-07-20T03:43:40;21.23;;;11.50;;
80852;SDS011;70270;43.434;28.338;2023-07-20T03:46:24;23.80;;;12.30;;
80852;SDS011;70270;43.434;28.338;2023-07-20T03:49:09;21.13;;;11.18;;
80852;SDS011;70270;43.434;28.338;2023-07-20T03:51:54;14.65;;;10.60;;
80852;SDS011;70270;43.434;28.338;2023-07-20T03:54:39;18.55;;;11.48;;
80852;SDS011;70270;43.434;28.338;2023-07-20T03:57:24;13.65;;;11.30;;
80852;SDS011;70270;43.434;28.338;2023-07-20T04:00:08;14.32;;;10.50;;
80852;SDS011;70270;43.434;28.338;2023-07-20T04:02:59;23.45;;;11.55;;
80852;SDS011;70270;43.434;28.338;2023-07-20T04:05:43;17.02;;;10.85;;
80852;SDS011;70270;43.434;28.338;2023-07-20T04:08:28;15.85;;;10.13;;
80852;SDS011;70270;43.434;28.338;2023-07-20T04:11:13;15.55;;;11.55;;
80852;SDS011;70270;43.434;28.338;2023-07-20T04:13:57;21.42;;;11.20;;
80852;SDS011;70270;43.434;28.338;2023-07-20T04:16:42;18.48;;;11.32;;
80852;SDS011;70270;43.434;28.338;2023-07-20T04:19:26;14.95;;;11.25;;
80852;SDS011;70270;43.434;28.338;2023-07-20T04:22:10;16.02;;;11.57;;
80852;SDS011;70270;43.434;28.338;2023-07-20T04:24:55;19.90;;;11.57;;
80852;SDS011;70270;43.434;28.338;2023-07-20T04:27:39;17.63;;;10.27;;
80852;SDS011;70270;43.434;28.338;2023-07-20T04:30:24;13.80;;;10.55;;
80852;SDS011;70270;43.434;28.338;2023-07-20T04:33:08;14.80;;;10.70;;
80852;SDS011;70270;43.434;28.338;2023-07-20T04:35:53;17.05;;;11.18;;
80852;SDS011;70270;43.434;28.338;2023-07-20T04:38:50;12.77;;;10.75;;
80852;SDS011;70270;43.434;28.338;2023-07-20T04:41:37;18.30;;;11.20;;
80852;SDS011;70270;43.434;28.338;2023-07-20T04:44:21;17.92;;;10.23;;
80852;SDS011;70270;43.434;28.338;2023-07-20T04:47:06;16.48;;;9.98;;
80852;SDS011;70270;43.434;28.338;2023-07-20T04:49:55;14.95;;;10.07;;
80852;SDS011;70270;43.434;28.338;2023-07-20T04:52:39;17.52;;;10.45;;
80852;SDS011;70270;43.434;28.338;2023-07-20T04:55:23;22.25;;;11.35;;
80852;SDS011;70270;43.434;28.338;2023-07-20T04:58:09;18.27;;;11.93;;
80852;SDS011;70270;43.434;28.338;2023-07-20T05:00:55;19.52;;;11.15;;
80852;SDS011;70270;43.434;28.338;2023-07-20T05:03:40;21.55;;;10.77;;
80852;SDS011;70270;43.434;28.338;2023-07-20T05:06:26;18.58;;;11.23;;
80852;SDS011;70270;43.434;28.338;2023-07-20T05:09:10;18.88;;;11.25;;
80852;SDS011;70270;43.434;28.338;2023-07-20T05:11:54;21.25;;;11.05;;
80852;SDS011;70270;43.434;28.338;2023-07-20T05:17:25;19.35;;;11.50;;
80852;SDS011;70270;43.434;28.338;2023-07-20T05:20:10;18.27;;;12.18;;
80852;SDS011;70270;43.434;28.338;2023-07-20T05:22:56;21.92;;;12.68;;
80852;SDS011;70270;43.434;28.338;2023-07-20T05:25:40;17.02;;;11.77;;
80852;SDS011;70270;43.434;28.338;2023-07-20T05:28:25;17.63;;;11.68;;
80852;SDS011;70270;43.434;28.338;2023-07-20T05:31:11;16.15;;;12.32;;
80852;SDS011;70270;43.434;28.338;2023-07-20T05:33:55;18.15;;;12.20;;
80852;SDS011;70270;43.434;28.338;2023-07-20T05:36:39;20.20;;;10.70;;
80852;SDS011;70270;43.434;28.338;2023-07-20T05:39:24;20.75;;;11.57;;
80852;SDS011;70270;43.434;28.338;2023-07-20T05:42:08;23.17;;;12.93;;
80852;SDS011;70270;43.434;28.338;2023-07-20T05:44:53;16.65;;;10.88;;
80852;SDS011;70270;43.434;28.338;2023-07-20T05:47:39;20.83;;;10.73;;
80852;SDS011;70270;43.434;28.338;2023-07-20T05:50:23;28.25;;;12.25;;
80852;SDS011;70270;43.434;28.338;2023-07-20T05:53:08;22.15;;;10.45;;
80852;SDS011;70270;43.434;28.338;2023-07-20T05:55:53;22.98;;;10.88;;
80852;SDS011;70270;43.434;28.338;2023-07-20T05:58:37;21.63;;;10.88;;
80852;SDS011;70270;43.434;28.338;2023-07-20T06:01:22;26.38;;;11.20;;
80852;SDS011;70270;43.434;28.338;2023-07-20T06:04:06;18.92;;;9.70;;
80852;SDS011;70270;43.434;28.338;2023-07-20T06:06:50;20.20;;;9.23;;
80852;SDS011;70270;43.434;28.338;2023-07-20T06:09:35;18.92;;;9.43;;
80852;SDS011;70270;43.434;28.338;2023-07-20T06:12:19;21.13;;;8.50;;
80852;SDS011;70270;43.434;28.338;2023-07-20T06:15:04;18.50;;;10.07;;
80852;SDS011;70270;43.434;28.338;2023-07-20T06:17:50;22.20;;;10.48;;
80852;SDS011;70270;43.434;28.338;2023-07-20T06:20:34;22.80;;;10.15;;
80852;SDS011;70270;43.434;28.338;2023-07-20T06:23:19;16.85;;;9.15;;
80852;SDS011;70270;43.434;28.338;2023-07-20T06:26:05;18.05;;;8.95;;
80852;SDS011;70270;43.434;28.338;2023-07-20T06:28:50;17.77;;;9.85;;
80852;SDS011;70270;43.434;28.338;2023-07-20T06:31:35;24.73;;;9.98;;
80852;SDS011;70270;43.434;28.338;2023-07-20T06:34:20;17.65;;;9.70;;
80852;SDS011;70270;43.434;28.338;2023-07-20T06:37:05;20.50;;;10.57;;
80852;SDS011;70270;43.434;28.338;2023-07-20T06:39:49;19.98;;;10.23;;
80852;SDS011;70270;43.434;28.338;2023-07-20T06:42:34;14.38;;;9.13;;
80852;SDS011;70270;43.434;28.338;2023-07-20T06:45:19;15.57;;;8.50;;
80852;SDS011;70270;43.434;28.338;2023-07-20T06:48:06;15.23;;;8.57;;
80852;SDS011;70270;43.434;28.338;2023-07-20T06:50:51;21.67;;;9.10;;
80852;SDS011;70270;43.434;28.338;2023-07-20T06:53:35;17.98;;;8.88;;
80852;SDS011;70270;43.434;28.338;2023-07-20T06:56:20;14.40;;;7.00;;
80852;SDS011;70270;43.434;28.338;2023-07-20T06:59:04;16.95;;;7.32;;
80852;SDS011;70270;43.434;28.338;2023-07-20T07:01:49;17.48;;;7.03;;
80852;SDS011;70270;43.434;28.338;2023-07-20T07:04:33;16.33;;;7.55;;
80852;SDS011;70270;43.434;28.338;2023-07-20T07:07:18;13.23;;;6.85;;
80852;SDS011;70270;43.434;28.338;2023-07-20T07:10:02;13.63;;;7.18;;
80852;SDS011;70270;43.434;28.338;2023-07-20T07:12:49;14.50;;;6.68;;
80852;SDS011;70270;43.434;28.338;2023-07-20T07:15:33;14.13;;;7.07;;
80852;SDS011;70270;43.434;28.338;2023-07-20T07:18:18;18.92;;;7.15;;
80852;SDS011;70270;43.434;28.338;2023-07-20T07:21:04;13.50;;;7.05;;
80852;SDS011;70270;43.434;28.338;2023-07-20T07:23:48;19.50;;;7.00;;
80852;SDS011;70270;43.434;28.338;2023-07-20T07:26:33;17.45;;;6.95;;
80852;SDS011;70270;43.434;28.338;2023-07-20T07:29:18;17.23;;;6.25;;
80852;SDS011;70270;43.434;28.338;2023-07-20T07:32:02;15.38;;;6.32;;
80852;SDS011;70270;43.434;28.338;2023-07-20T07:34:47;18.05;;;7.28;;
80852;SDS011;70270;43.434;28.338;2023-07-20T07:37:32;19.38;;;6.18;;
80852;SDS011;70270;43.434;28.338;2023-07-20T07:40:17;16.75;;;6.38;;
80852;SDS011;70270;43.434;28.338;2023-07-20T07:43:01;15.85;;;6.10;;
80852;SDS011;70270;43.434;28.338;2023-07-20T07:45:46;20.83;;;8.45;;
80852;SDS011;70270;43.434;28.338;2023-07-20T07:48:31;20.27;;;7.88;;
80852;SDS011;70270;43.434;28.338;2023-07-20T07:51:15;19.20;;;8.93;;
80852;SDS011;70270;43.434;28.338;2023-07-20T07:54:00;22.20;;;9.25;;
80852;SDS011;70270;43.434;28.338;2023-07-20T07:56:45;24.67;;;9.32;;
80852;SDS011;70270;43.434;28.338;2023-07-20T07:59:29;29.27;;;10.82;;
80852;SDS011;70270;43.434;28.338;2023-07-20T08:02:15;19.88;;;9.40;;
80852;SDS011;70270;43.434;28.338;2023-07-20T08:04:59;20.88;;;10.00;;
80852;SDS011;70270;43.434;28.338;2023-07-20T08:07:44;29.90;;;15.57;;
80852;SDS011;70270;43.434;28.338;2023-07-20T08:10:30;70.82;;;37.22;;
80852;SDS011;70270;43.434;28.338;2023-07-20T08:13:14;57.28;;;21.85;;
80852;SDS011;70270;43.434;28.338;2023-07-20T08:15:59;51.88;;;22.27;;
80852;SDS011;70270;43.434;28.338;2023-07-20T08:18:43;40.30;;;19.02;;
80852;SDS011;70270;43.434;28.338;2023-07-20T08:21:29;36.33;;;13.48;;
80852;SDS011;70270;43.434;28.338;2023-07-20T08:24:14;30.42;;;11.98;;
80852;SDS011;70270;43.434;28.338;2023-07-20T08:26:58;22.02;;;11.55;;
80852;SDS011;70270;43.434;28.338;2023-07-20T08:29:43;29.20;;;12.30;;
80852;SDS011;70270;43.434;28.338;2023-07-20T08:32:27;22.85;;;12.75;;
80852;SDS011;70270;43.434;28.338;2023-07-20T08:35:12;25.30;;;10.98;;
80852;SDS011;70270;43.434;28.338;2023-07-20T08:37:56;18.40;;;10.18;;
80852;SDS011;70270;43.434;28.338;2023-07-20T08:40:41;22.08;;;10.00;;
80852;SDS011;70270;43.434;28.338;2023-07-20T08:43:28;18.80;;;8.15;;
80852;SDS011;70270;43.434;28.338;2023-07-20T08:46:16;19.80;;;7.88;;
80852;SDS011;70270;43.434;28.338;2023-07-20T08:51:49;18.83;;;10.23;;
80852;SDS011;70270;43.434;28.338;2023-07-20T08:54:35;20.88;;;8.73;;
80852;SDS011;70270;43.434;28.338;2023-07-20T08:57:20;21.23;;;9.73;;
80852;SDS011;70270;43.434;28.338;2023-07-20T09:00:06;21.83;;;7.93;;
80852;SDS011;70270;43.434;28.338;2023-07-20T09:02:56;17.50;;;8.15;;
80852;SDS011;70270;43.434;28.338;2023-07-20T09:05:41;16.90;;;7.13;;
80852;SDS011;70270;43.434;28.338;2023-07-20T09:08:26;15.10;;;7.97;;
80852;SDS011;70270;43.434;28.338;2023-07-20T09:11:11;22.55;;;7.65;;
80852;SDS011;70270;43.434;28.338;2023-07-20T09:14:06;14.90;;;6.25;;
80852;SDS011;70270;43.434;28.338;2023-07-20T09:16:53;22.10;;;7.50;;
80852;SDS011;70270;43.434;28.338;2023-07-20T09:23:19;20.88;;;8.55;;
80852;SDS011;70270;43.434;28.338;2023-07-20T09:26:10;23.30;;;8.07;;
80852;SDS011;70270;43.434;28.338;2023-07-20T09:28:59;20.80;;;8.23;;
80852;SDS011;70270;43.434;28.338;2023-07-20T09:31:44;41.63;;;8.88;;
80852;SDS011;70270;43.434;28.338;2023-07-20T09:34:44;21.15;;;7.85;;
80852;SDS011;70270;43.434;28.338;2023-07-20T09:37:28;15.63;;;7.78;;
80852;SDS011;70270;43.434;28.338;2023-07-20T09:40:16;15.07;;;7.78;;
80852;SDS011;70270;43.434;28.338;2023-07-20T09:43:01;18.00;;;7.63;;
80852;SDS011;70270;43.434;28.338;2023-07-20T09:45:48;16.23;;;7.50;;
80852;SDS011;70270;43.434;28.338;2023-07-20T09:48:32;19.45;;;6.85;;
80852;SDS011;70270;43.434;28.338;2023-07-20T09:51:17;19.58;;;6.95;;
80852;SDS011;70270;43.434;28.338;2023-07-20T09:54:02;21.92;;;7.22;;
80852;SDS011;70270;43.434;28.338;2023-07-20T09:56:48;16.48;;;7.00;;
80852;SDS011;70270;43.434;28.338;2023-07-20T09:59:34;20.00;;;7.20;;
80852;SDS011;70270;43.434;28.338;2023-07-20T10:02:25;16.27;;;6.57;;
80852;SDS011;70270;43.434;28.338;2023-07-20T10:05:16;18.20;;;7.10;;
80852;SDS011;70270;43.434;28.338;2023-07-20T10:08:02;14.18;;;6.30;;
80852;SDS011;70270;43.434;28.338;2023-07-20T10:10:49;18.77;;;6.35;;
80852;SDS011;70270;43.434;28.338;2023-07-20T10:13:34;17.60;;;7.03;;
80852;SDS011;70270;43.434;28.338;2023-07-20T10:16:23;17.52;;;6.65;;
80852;SDS011;70270;43.434;28.338;2023-07-20T10:22:18;19.52;;;6.40;;
80852;SDS011;70270;43.434;28.338;2023-07-20T10:25:06;13.45;;;5.93;;
80852;SDS011;70270;43.434;28.338;2023-07-20T10:27:52;14.10;;;5.88;;
80852;SDS011;70270;43.434;28.338;2023-07-20T10:30:38;14.02;;;6.63;;
80852;SDS011;70270;43.434;28.338;2023-07-20T10:33:24;13.75;;;6.05;;
80852;SDS011;70270;43.434;28.338;2023-07-20T10:36:09;14.63;;;5.47;;
80852;SDS011;70270;43.434;28.338;2023-07-20T10:38:56;19.75;;;6.53;;
80852;SDS011;70270;43.434;28.338;2023-07-20T10:41:41;18.35;;;6.90;;
80852;SDS011;70270;43.434;28.338;2023-07-20T10:44:26;12.27;;;5.07;;
80852;SDS011;70270;43.434;28.338;2023-07-20T10:47:11;11.75;;;5.68;;
80852;SDS011;70270;43.434;28.338;2023-07-20T10:50:00;16.38;;;5.95;;
80852;SDS011;70270;43.434;28.338;2023-07-20T10:52:49;17.00;;;6.60;;
80852;SDS011;70270;43.434;28.338;2023-07-20T10:55:49;16.83;;;6.53;;
80852;SDS011;70270;43.434;28.338;2023-07-20T10:59:04;13.70;;;6.15;;
80852;SDS011;70270;43.434;28.338;2023-07-20T11:02:24;14.90;;;5.50;;
80852;SDS011;70270;43.434;28.338;2023-07-20T11:05:22;17.70;;;6.38;;
80852;SDS011;70270;43.434;28.338;2023-07-20T11:08:37;14.45;;;5.70;;
80852;SDS011;70270;43.434;28.338;2023-07-20T11:11:27;14.73;;;5.90;;
80852;SDS011;70270;43.434;28.338;2023-07-20T11:14:20;12.15;;;5.68;;
80852;SDS011;70270;43.434;28.338;2023-07-20T11:17:12;14.95;;;5.65;;
80852;SDS011;70270;43.434;28.338;2023-07-20T11:19:57;15.43;;;5.40;;
80852;SDS011;70270;43.434;28.338;2023-07-20T11:22:44;14.88;;;5.97;;
80852;SDS011;70270;43.434;28.338;2023-07-20T11:25:40;18.17;;;5.45;;
80852;SDS011;70270;43.434;28.338;2023-07-20T11:28:24;19.98;;;5.53;;
80852;SDS011;70270;43.434;28.338;2023-07-20T11:31:09;16.77;;;5.50;;
80852;SDS011;70270;43.434;28.338;2023-07-20T11:33:53;18.73;;;6.28;;
80852;SDS011;70270;43.434;28.338;2023-07-20T11:36:38;16.55;;;7.55;;
80852;SDS011;70270;43.434;28.338;2023-07-20T11:39:25;14.75;;;5.63;;
80852;SDS011;70270;43.434;28.338;2023-07-20T11:42:10;16.80;;;7.15;;
80852;SDS011;70270;43.434;28.338;2023-07-20T11:44:56;12.55;;;6.15;;
80852;SDS011;70270;43.434;28.338;2023-07-20T11:47:44;18.15;;;7.05;;
80852;SDS011;70270;43.434;28.338;2023-07-20T11:50:28;14.82;;;5.10;;
80852;SDS011;70270;43.434;28.338;2023-07-20T11:53:13;15.77;;;6.35;;
80852;SDS011;70270;43.434;28.338;2023-07-20T11:58:43;16.67;;;7.43;;
80852;SDS011;70270;43.434;28.338;2023-07-20T12:01:29;23.38;;;7.25;;
80852;SDS011;70270;43.434;28.338;2023-07-20T12:04:15;15.55;;;7.57;;
80852;SDS011;70270;43.434;28.338;2023-07-20T12:07:00;14.05;;;7.53;;
80852;SDS011;70270;43.434;28.338;2023-07-20T12:09:45;14.43;;;6.75;;
80852;SDS011;70270;43.434;28.338;2023-07-20T12:12:46;13.70;;;7.65;;
80852;SDS011;70270;43.434;28.338;2023-07-20T12:15:31;18.42;;;8.18;;
80852;SDS011;70270;43.434;28.338;2023-07-20T12:18:16;13.88;;;5.82;;
80852;SDS011;70270;43.434;28.338;2023-07-20T12:21:00;12.35;;;6.20;;
80852;SDS011;70270;43.434;28.338;2023-07-20T12:23:45;17.48;;;6.22;;
80852;SDS011;70270;43.434;28.338;2023-07-20T12:26:30;13.88;;;6.07;;
80852;SDS011;70270;43.434;28.338;2023-07-20T12:31:59;15.93;;;5.50;;
80852;SDS011;70270;43.434;28.338;2023-07-20T12:34:44;17.23;;;6.72;;
80852;SDS011;70270;43.434;28.338;2023-07-20T12:37:28;13.73;;;5.63;;
80852;SDS011;70270;43.434;28.338;2023-07-20T12:40:12;16.90;;;6.20;;
80852;SDS011;70270;43.434;28.338;2023-07-20T12:42:57;21.48;;;6.25;;
80852;SDS011;70270;43.434;28.338;2023-07-20T12:45:42;18.55;;;7.13;;
80852;SDS011;70270;43.434;28.338;2023-07-20T12:48:27;17.55;;;6.50;;
80852;SDS011;70270;43.434;28.338;2023-07-20T12:51:11;12.95;;;6.00;;
80852;SDS011;70270;43.434;28.338;2023-07-20T12:54:00;13.23;;;6.47;;
80852;SDS011;70270;43.434;28.338;2023-07-20T12:56:44;17.17;;;5.82;;
80852;SDS011;70270;43.434;28.338;2023-07-20T12:59:29;27.77;;;6.82;;
80852;SDS011;70270;43.434;28.338;2023-07-20T13:02:14;14.45;;;6.65;;
80852;SDS011;70270;43.434;28.338;2023-07-20T13:04:58;15.30;;;6.00;;
80852;SDS011;70270;43.434;28.338;2023-07-20T13:07:43;18.10;;;6.85;;
80852;SDS011;70270;43.434;28.338;2023-07-20T13:10:27;14.77;;;6.43;;
80852;SDS011;70270;43.434;28.338;2023-07-20T13:13:13;12.27;;;6.13;;
80852;SDS011;70270;43.434;28.338;2023-07-20T13:15:57;16.52;;;5.95;;
80852;SDS011;70270;43.434;28.338;2023-07-20T13:18:42;13.80;;;6.15;;
80852;SDS011;70270;43.434;28.338;2023-07-20T13:21:26;16.42;;;6.47;;
80852;SDS011;70270;43.434;28.338;2023-07-20T13:24:10;15.10;;;6.28;;
80852;SDS011;70270;43.434;28.338;2023-07-20T13:26:55;15.52;;;6.53;;
80852;SDS011;70270;43.434;28.338;2023-07-20T13:29:39;11.57;;;5.75;;
80852;SDS011;70270;43.434;28.338;2023-07-20T13:32:24;17.63;;;6.63;;
80852;SDS011;70270;43.434;28.338;2023-07-20T13:35:09;13.68;;;6.57;;
80852;SDS011;70270;43.434;28.338;2023-07-20T13:40:38;15.10;;;6.63;;
80852;SDS011;70270;43.434;28.338;2023-07-20T13:43:23;18.25;;;7.05;;
80852;SDS011;70270;43.434;28.338;2023-07-20T13:46:07;15.13;;;7.38;;
80852;SDS011;70270;43.434;28.338;2023-07-20T13:48:52;13.43;;;6.57;;
80852;SDS011;70270;43.434;28.338;2023-07-20T13:51:36;14.60;;;6.95;;
80852;SDS011;70270;43.434;28.338;2023-07-20T13:54:21;19.35;;;8.55;;
80852;SDS011;70270;43.434;28.338;2023-07-20T13:57:05;15.32;;;8.38;;
80852;SDS011;70270;43.434;28.338;2023-07-20T13:59:50;13.35;;;7.45;;
80852;SDS011;70270;43.434;28.338;2023-07-20T14:02:34;19.60;;;8.55;;
80852;SDS011;70270;43.434;28.338;2023-07-20T14:05:19;15.55;;;8.32;;
80852;SDS011;70270;43.434;28.338;2023-07-20T14:08:03;15.52;;;8.82;;
80852;SDS011;70270;43.434;28.338;2023-07-20T14:10:48;17.95;;;8.80;;
80852;SDS011;70270;43.434;28.338;2023-07-20T14:13:32;16.95;;;10.05;;
80852;SDS011;70270;43.434;28.338;2023-07-20T14:16:16;19.48;;;10.55;;
80852;SDS011;70270;43.434;28.338;2023-07-20T14:19:01;16.83;;;10.20;;
80852;SDS011;70270;43.434;28.338;2023-07-20T14:21:45;16.63;;;10.20;;
80852;SDS011;70270;43.434;28.338;2023-07-20T14:24:30;20.63;;;11.05;;
80852;SDS011;70270;43.434;28.338;2023-07-20T14:27:14;16.63;;;10.85;;
80852;SDS011;70270;43.434;28.338;2023-07-20T14:29:59;16.08;;;10.13;;
80852;SDS011;70270;43.434;28.338;2023-07-20T14:32:43;16.30;;;10.10;;
80852;SDS011;70270;43.434;28.338;2023-07-20T14:35:27;20.35;;;11.60;;
80852;SDS011;70270;43.434;28.338;2023-07-20T14:38:12;15.18;;;11.68;;
80852;SDS011;70270;43.434;28.338;2023-07-20T14:40:56;19.60;;;10.65;;
80852;SDS011;70270;43.434;28.338;2023-07-20T14:43:41;13.77;;;9.43;;
80852;SDS011;70270;43.434;28.338;2023-07-20T14:46:25;16.75;;;10.07;;
80852;SDS011;70270;43.434;28.338;2023-07-20T14:49:10;14.15;;;10.75;;
80852;SDS011;70270;43.434;28.338;2023-07-20T14:51:54;14.57;;;10.85;;
80852;SDS011;70270;43.434;28.338;2023-07-20T14:54:39;15.73;;;9.77;;
80852;SDS011;70270;43.434;28.338;2023-07-20T14:57:24;17.23;;;11.05;;
80852;SDS011;70270;43.434;28.338;2023-07-20T15:00:08;18.90;;;11.02;;
80852;SDS011;70270;43.434;28.338;2023-07-20T15:02:56;15.52;;;9.48;;
80852;SDS011;70270;43.434;28.338;2023-07-20T15:05:40;15.60;;;10.10;;
80852;SDS011;70270;43.434;28.338;2023-07-20T15:08:26;18.02;;;10.30;;
80852;SDS011;70270;43.434;28.338;2023-07-20T15:11:12;17.35;;;10.07;;
80852;SDS011;70270;43.434;28.338;2023-07-20T15:13:56;19.75;;;11.63;;
80852;SDS011;70270;43.434;28.338;2023-07-20T15:16:41;17.25;;;11.10;;
80852;SDS011;70270;43.434;28.338;2023-07-20T15:19:26;14.82;;;11.75;;
80852;SDS011;70270;43.434;28.338;2023-07-20T15:22:10;19.65;;;13.02;;
80852;SDS011;70270;43.434;28.338;2023-07-20T15:24:55;18.80;;;13.10;;
80852;SDS011;70270;43.434;28.338;2023-07-20T15:27:39;19.55;;;12.55;;
80852;SDS011;70270;43.434;28.338;2023-07-20T15:30:27;23.80;;;14.15;;
80852;SDS011;70270;43.434;28.338;2023-07-20T15:33:12;19.45;;;12.57;;
80852;SDS011;70270;43.434;28.338;2023-07-20T15:35:58;23.00;;;13.07;;
80852;SDS011;70270;43.434;28.338;2023-07-20T15:38:42;16.20;;;11.43;;
80852;SDS011;70270;43.434;28.338;2023-07-20T15:41:27;23.52;;;13.43;;
80852;SDS011;70270;43.434;28.338;2023-07-20T15:44:12;16.77;;;12.55;;
80852;SDS011;70270;43.434;28.338;2023-07-20T15:46:57;17.13;;;12.70;;
80852;SDS011;70270;43.434;28.338;2023-07-20T15:49:42;13.02;;;11.43;;
80852;SDS011;70270;43.434;28.338;2023-07-20T15:52:27;16.90;;;12.85;;
80852;SDS011;70270;43.434;28.338;2023-07-20T15:55:12;16.20;;;12.63;;
80852;SDS011;70270;43.434;28.338;2023-07-20T15:57:57;17.17;;;13.35;;
80852;SDS011;70270;43.434;28.338;2023-07-20T16:00:41;19.20;;;13.65;;
80852;SDS011;70270;43.434;28.338;2023-07-20T16:03:26;17.73;;;13.63;;
80852;SDS011;70270;43.434;28.338;2023-07-20T16:06:10;18.50;;;14.70;;
80852;SDS011;70270;43.434;28.338;2023-07-20T16:08:54;18.88;;;14.00;;
80852;SDS011;70270;43.434;28.338;2023-07-20T16:11:39;20.33;;;14.43;;
80852;SDS011;70270;43.434;28.338;2023-07-20T16:14:24;22.90;;;13.57;;
80852;SDS011;70270;43.434;28.338;2023-07-20T16:17:08;16.10;;;13.00;;
80852;SDS011;70270;43.434;28.338;2023-07-20T16:19:53;18.25;;;14.43;;
80852;SDS011;70270;43.434;28.338;2023-07-20T16:22:37;18.30;;;16.33;;
80852;SDS011;70270;43.434;28.338;2023-07-20T16:25:23;21.75;;;15.35;;
80852;SDS011;70270;43.434;28.338;2023-07-20T16:28:08;25.80;;;15.43;;
80852;SDS011;70270;43.434;28.338;2023-07-20T16:30:53;19.85;;;15.65;;
80852;SDS011;70270;43.434;28.338;2023-07-20T16:33:38;25.80;;;17.50;;
80852;SDS011;70270;43.434;28.338;2023-07-20T16:36:24;20.40;;;17.05;;
80852;SDS011;70270;43.434;28.338;2023-07-20T16:39:08;31.13;;;19.10;;
80852;SDS011;70270;43.434;28.338;2023-07-20T16:41:53;31.10;;;18.83;;